createdAt,value
2023-02-11T00:01:21.749Z,100765.29
2023-02-11T00:04:12.781Z,100760.18
2023-02-11T00:07:08.751Z,100756.04
2023-02-11T00:10:02.902Z,100753.69
2023-02-11T00:12:55.797Z,100751.88
2023-02-11T00:15:48.882Z,100748.03
2023-02-11T00:18:44.704Z,100746.73
2023-02-11T00:21:37.552Z,100740.79
2023-02-11T00:24:32.091Z,100741.52
2023-02-11T00:27:24.802Z,100743.02
2023-02-11T00:30:17.835Z,100741.52
2023-02-11T00:33:10.633Z,100743.45
2023-02-11T00:36:08.171Z,100744.63
2023-02-11T00:39:04.447Z,100742.83
2023-02-11T00:41:57.177Z,100743.08
2023-02-11T00:44:50.423Z,100738.01
2023-02-11T00:47:36.448Z,100732.71
2023-02-11T00:50:29.702Z,100726.08
2023-02-11T00:53:22.439Z,100720.61
2023-02-11T00:56:15.253Z,100710.39
2023-02-11T00:59:08.264Z,100704.35
2023-02-11T01:02:01.566Z,100698.48
2023-02-11T01:04:54.406Z,100693.79
2023-02-11T01:07:48.382Z,100685.95
2023-02-11T01:10:41.449Z,100682.73
2023-02-11T01:13:37.324Z,100681.67
2023-02-11T01:16:30.246Z,100675.52
2023-02-11T01:19:23.015Z,100674.27
2023-02-11T01:22:15.839Z,100661.73
2023-02-11T01:25:09.451Z,100661.27
2023-02-11T01:28:03.169Z,100658.33
2023-02-11T01:30:48.857Z,100651.36
2023-02-11T01:33:42.000Z,100648.30
2023-02-11T01:36:34.840Z,100646.83
2023-02-11T01:39:28.011Z,100645.38
2023-02-11T01:42:23.585Z,100645.03
2023-02-11T01:45:54.936Z,100640.36
2023-02-11T01:48:53.341Z,100640.94
2023-02-11T01:51:49.903Z,100640.91
2023-02-11T01:55:05.157Z,100634.52
2023-02-11T01:58:02.421Z,100634.63
2023-02-11T02:00:57.718Z,100628.86
2023-02-11T02:03:54.016Z,100619.60
2023-02-11T02:06:51.143Z,100614.71
2023-02-11T02:09:57.737Z,100612.48
2023-02-11T02:12:50.878Z,100613.18
2023-02-11T02:15:37.602Z,100615.98
2023-02-11T02:18:45.296Z,100615.12
2023-02-11T02:22:10.526Z,100616.79
2023-02-11T02:25:21.017Z,100612.03
2023-02-11T02:28:39.096Z,100600.89
2023-02-11T02:31:53.703Z,100596.88
2023-02-11T02:34:52.470Z,100596.02
2023-02-11T02:37:53.917Z,100596.60
2023-02-11T02:40:55.880Z,100597.53
2023-02-11T02:43:51.850Z,100589.41
2023-02-11T02:46:38.464Z,100589.44
2023-02-11T02:49:33.125Z,100583.85
2023-02-11T02:52:40.643Z,100579.12
2023-02-11T02:55:54.199Z,100577.07
2023-02-11T02:59:22.179Z,100579.52
2023-02-11T03:02:23.182Z,100586.77
2023-02-11T03:05:31.499Z,100593.39
2023-02-11T03:08:31.285Z,100588.45
2023-02-11T03:11:25.900Z,100589.48
2023-02-11T03:14:20.675Z,100586.55
2023-02-11T03:17:15.569Z,100583.74
2023-02-11T03:20:12.497Z,100585.81
2023-02-11T03:23:06.256Z,100583.80
2023-02-11T03:26:11.885Z,100571.95
2023-02-11T03:29:15.668Z,100566.17
2023-02-11T03:32:09.480Z,100555.27
2023-02-11T03:35:05.659Z,100542.95
2023-02-11T03:38:02.034Z,100536.52
2023-02-11T03:40:57.061Z,100526.85
2023-02-11T03:43:55.849Z,100526.40
2023-02-11T03:46:52.972Z,100518.23
2023-02-11T03:49:37.493Z,100520.01
2023-02-11T03:52:30.706Z,100517.70
2023-02-11T03:55:20.218Z,100515.02
2023-02-11T03:58:13.517Z,100503.75
2023-02-11T04:01:09.920Z,100495.77
2023-02-11T04:04:02.749Z,100489.66
2023-02-11T04:06:48.406Z,100486.14
2023-02-11T04:09:41.737Z,100478.42
2023-02-11T04:12:34.838Z,100464.98
2023-02-11T04:15:28.118Z,100460.91
2023-02-11T04:18:20.928Z,100467.70
2023-02-11T04:21:01.075Z,100464.85
2023-02-11T04:23:53.852Z,100462.98
2023-02-11T04:26:46.836Z,100464.05
2023-02-11T04:29:40.241Z,100452.30
2023-02-11T04:32:33.386Z,100448.64
2023-02-11T04:35:26.145Z,100448.36
2023-02-11T04:38:19.024Z,100437.45
2023-02-11T04:41:11.885Z,100425.35
2023-02-11T04:44:04.886Z,100417.52
2023-02-11T04:46:57.677Z,100419.88
2023-02-11T04:49:50.476Z,100416.55
2023-02-11T04:52:43.366Z,100412.31
2023-02-11T04:55:36.539Z,100400.40
2023-02-11T04:58:29.430Z,100396.52
2023-02-11T05:01:22.338Z,100402.46
2023-02-11T05:04:15.672Z,100409.39
2023-02-11T05:07:08.564Z,100415.78
2023-02-11T05:10:01.559Z,100422.90
2023-02-11T05:12:56.028Z,100428.26
2023-02-11T05:15:50.148Z,100429.45
2023-02-11T05:18:44.538Z,100424.80
2023-02-11T05:21:37.741Z,100416.20
2023-02-11T05:24:30.634Z,100413.27
2023-02-11T05:27:24.441Z,100416.80
2023-02-11T05:30:17.913Z,100414.47
2023-02-11T05:33:10.750Z,100424.08
2023-02-11T05:36:06.077Z,100435.14
2023-02-11T05:38:58.930Z,100443.35
2023-02-11T05:41:51.815Z,100451.38
2023-02-11T05:44:45.255Z,100450.27
2023-02-11T05:47:30.621Z,100465.11
2023-02-11T05:50:16.042Z,100461.55
2023-02-11T05:53:08.891Z,100438.07
2023-02-11T05:56:01.960Z,100421.33
2023-02-11T05:58:54.900Z,100420.23
2023-02-11T06:01:47.669Z,100386.38
2023-02-11T06:04:40.592Z,100362.30
2023-02-11T06:07:33.528Z,100336.83
2023-02-11T06:10:26.273Z,100338.48
2023-02-11T06:13:19.850Z,100345.35
2023-02-11T06:16:12.711Z,100339.57
2023-02-11T06:19:05.815Z,100335.97
2023-02-11T06:21:58.772Z,100324.20
2023-02-11T06:25:01.382Z,100328.33
2023-02-11T06:27:54.742Z,100345.77
2023-02-11T06:30:41.391Z,100340.13
2023-02-11T06:33:34.616Z,100324.52
2023-02-11T06:36:27.825Z,100321.98
2023-02-11T06:39:20.733Z,100316.14
2023-02-11T06:42:08.023Z,100316.72
2023-02-11T06:44:54.191Z,100307.73
2023-02-11T06:47:46.975Z,100318.51
2023-02-11T06:50:39.734Z,100313.23
2023-02-11T06:53:32.794Z,100312.41
2023-02-11T06:56:28.235Z,100313.96
2023-02-11T06:59:14.283Z,100311.80
2023-02-11T07:02:07.223Z,100317.98
2023-02-11T07:04:56.754Z,100317.02
2023-02-11T07:07:49.676Z,100318.55
2023-02-11T07:10:42.885Z,100314.90
2023-02-11T07:13:36.496Z,100315.00
2023-02-11T07:16:21.055Z,100311.98
2023-02-11T07:19:14.229Z,100298.28
2023-02-11T07:21:49.986Z,100302.05
2023-02-11T07:24:25.070Z,100304.25
2023-02-11T07:27:18.186Z,100298.44
2023-02-11T07:30:16.583Z,100295.30
2023-02-11T07:33:09.695Z,100290.02
2023-02-11T07:36:05.356Z,100272.39
2023-02-11T07:38:58.539Z,100265.67
2023-02-11T07:41:47.918Z,100269.84
2023-02-11T07:44:40.850Z,100271.02
2023-02-11T07:47:35.781Z,100273.46
2023-02-11T07:50:19.750Z,100268.28
2023-02-11T07:53:11.710Z,100262.98
2023-02-11T07:56:06.090Z,100258.33
2023-02-11T07:58:51.782Z,100260.92
2023-02-11T08:01:44.808Z,100261.79
2023-02-11T08:04:38.289Z,100259.60
2023-02-11T08:07:31.337Z,100260.86
2023-02-11T08:10:27.359Z,100261.25
2023-02-11T08:13:20.269Z,100266.39
2023-02-11T08:16:21.641Z,100267.14
2023-02-11T08:19:17.117Z,100258.69
2023-02-11T08:22:10.061Z,100251.45
2023-02-11T08:25:06.249Z,100256.89
2023-02-11T08:27:57.886Z,100253.86
2023-02-11T08:30:33.103Z,100261.45
2023-02-11T08:33:16.057Z,100261.59
2023-02-11T08:36:14.080Z,100254.31
2023-02-11T08:39:22.502Z,100250.05
2023-02-11T08:42:09.250Z,100254.45
2023-02-11T08:45:02.255Z,100251.15
2023-02-11T08:47:48.077Z,100248.12
2023-02-11T08:50:28.199Z,100239.36
2023-02-11T08:53:21.121Z,100234.75
2023-02-11T08:55:55.847Z,100222.73
2023-02-11T08:58:49.032Z,100231.44
2023-02-11T09:01:43.623Z,100233.60
2023-02-11T09:04:36.675Z,100227.96
2023-02-11T09:07:32.878Z,100230.20
2023-02-11T09:10:25.929Z,100232.69
2023-02-11T09:13:21.566Z,100235.42
2023-02-11T09:16:06.994Z,100225.30
2023-02-11T09:19:02.365Z,100216.37
2023-02-11T09:21:54.046Z,100203.29
2023-02-11T09:24:37.027Z,100196.29
2023-02-11T09:27:31.367Z,100197.78
2023-02-11T09:30:24.954Z,100199.52
2023-02-11T09:33:17.913Z,100196.39
2023-02-11T09:36:12.039Z,100192.66
2023-02-11T09:39:06.606Z,100190.65
2023-02-11T09:42:22.001Z,100189.14
2023-02-11T09:45:20.412Z,100187.14
2023-02-11T09:48:06.173Z,100181.64
2023-02-11T09:50:41.452Z,100175.42
2023-02-11T09:53:29.929Z,100172.26
2023-02-11T09:56:23.171Z,100161.15
2023-02-11T09:59:17.755Z,100153.55
2023-02-11T10:02:17.655Z,100150.03
2023-02-11T10:05:35.194Z,100139.32
2023-02-11T10:08:28.689Z,100150.60
2023-02-11T10:11:32.088Z,100153.34
2023-02-11T10:14:21.296Z,100149.83
2023-02-11T10:17:22.735Z,100142.92
2023-02-11T10:20:26.404Z,100131.41
2023-02-11T10:23:22.508Z,100126.64
2023-02-11T10:26:20.759Z,100116.26
2023-02-11T10:29:00.901Z,100106.52
2023-02-11T10:31:57.929Z,100112.11
2023-02-11T10:34:52.091Z,100111.05
2023-02-11T10:37:45.753Z,100109.94
2023-02-11T10:40:39.361Z,100097.45
2023-02-11T10:43:36.328Z,100083.92
2023-02-11T10:46:33.578Z,100067.38
2023-02-11T10:49:42.307Z,100062.66
2023-02-11T10:52:35.146Z,100050.20
2023-02-11T10:55:30.126Z,100040.90
2023-02-11T10:58:33.295Z,100040.10
2023-02-11T11:01:38.696Z,100035.92
2023-02-11T11:04:45.116Z,100039.58
2023-02-11T11:07:39.690Z,100037.13
2023-02-11T11:10:44.618Z,100029.94
2023-02-11T11:13:40.077Z,100019.90
2023-02-11T11:16:28.349Z,100009.55
2023-02-11T11:19:25.338Z,100002.73
2023-02-11T11:22:24.898Z,99996.73
2023-02-11T11:25:30.696Z,99985.81
2023-02-11T11:28:26.544Z,99981.96
2023-02-11T11:31:23.425Z,99975.14
2023-02-11T11:34:31.036Z,99965.48
2023-02-11T11:37:27.955Z,99956.88
2023-02-11T11:40:29.143Z,99959.14
2023-02-11T11:43:23.924Z,99958.87
2023-02-11T11:46:07.801Z,99958.70
2023-02-11T11:48:53.209Z,99951.33
2023-02-11T11:51:43.552Z,99958.52
2023-02-11T11:54:26.537Z,99951.70
2023-02-11T11:57:24.380Z,99955.64
2023-02-11T12:00:22.222Z,99961.15
2023-02-11T12:03:29.293Z,99966.66
2023-02-11T12:06:33.785Z,99967.69
2023-02-11T12:09:34.013Z,99972.23
2023-02-11T12:12:40.889Z,99977.27
2023-02-11T12:15:36.480Z,99975.52
2023-02-11T12:18:38.645Z,99968.66
2023-02-11T12:21:55.484Z,99974.27
2023-02-11T12:25:10.053Z,99964.46
2023-02-11T12:28:09.061Z,99960.23
2023-02-11T12:31:15.341Z,99952.92
2023-02-11T12:34:27.263Z,99953.10
2023-02-11T12:37:43.944Z,99953.98
2023-02-11T12:40:26.647Z,99954.42
2023-02-11T12:43:25.798Z,99944.79
2023-02-11T12:46:43.523Z,99941.48
2023-02-11T12:49:55.903Z,99942.54
2023-02-11T12:53:19.210Z,99934.39
2023-02-11T12:56:18.952Z,99923.19
2023-02-11T12:59:18.755Z,99920.44
2023-02-11T13:02:13.516Z,99909.91
2023-02-11T13:05:19.995Z,99901.91
2023-02-11T13:08:17.685Z,99900.25
2023-02-11T13:11:15.165Z,99904.77
2023-02-11T13:14:17.896Z,99901.82
2023-02-11T13:17:21.293Z,99903.36
2023-02-11T13:20:27.668Z,99899.22
2023-02-11T13:23:24.582Z,99890.42
2023-02-11T13:26:25.020Z,99880.00
2023-02-11T13:29:33.346Z,99878.86
2023-02-11T13:32:19.088Z,99875.07
2023-02-11T13:35:06.082Z,99866.70
2023-02-11T13:38:00.409Z,99864.70
2023-02-11T13:41:04.482Z,99858.84
2023-02-11T13:44:27.411Z,99855.80
2023-02-11T13:47:43.122Z,99864.90
2023-02-11T13:50:40.950Z,99877.59
2023-02-11T13:53:45.739Z,99890.89
2023-02-11T13:56:41.230Z,99893.80
2023-02-11T13:59:51.500Z,99896.00
2023-02-11T14:03:01.852Z,99909.55
2023-02-11T14:06:30.774Z,99917.38
2023-02-11T14:09:40.083Z,99933.37
2023-02-11T14:12:36.224Z,99929.70
2023-02-11T14:16:04.545Z,99929.53
2023-02-11T14:19:04.567Z,99920.58
2023-02-11T14:22:06.021Z,99912.10
2023-02-11T14:25:02.193Z,99909.06
2023-02-11T14:27:59.332Z,99915.23
2023-02-11T14:31:05.179Z,99916.63
2023-02-11T14:34:24.347Z,99923.55
2023-02-11T14:37:33.097Z,99921.23
2023-02-11T14:40:33.452Z,99924.73
2023-02-11T14:43:30.704Z,99920.55
2023-02-11T14:46:27.785Z,99907.21
2023-02-11T14:49:29.782Z,99897.36
2023-02-11T14:52:30.396Z,99889.36
2023-02-11T14:55:34.650Z,99884.05
2023-02-11T14:58:29.675Z,99888.39
2023-02-11T15:01:35.429Z,99895.31
2023-02-11T15:04:30.282Z,99897.55
2023-02-11T15:07:23.652Z,99900.08
2023-02-11T15:10:25.898Z,99890.77
2023-02-11T15:13:27.303Z,99892.08
2023-02-11T15:16:23.817Z,99891.26
2023-02-11T15:19:25.736Z,99886.68
2023-02-11T15:22:25.038Z,99893.09
2023-02-11T15:25:20.040Z,99894.83
2023-02-11T15:28:26.058Z,99896.52
2023-02-11T15:31:21.166Z,99890.65
2023-02-11T15:34:11.608Z,99889.59
2023-02-11T15:36:54.731Z,99893.50
2023-02-11T15:39:47.813Z,99895.95
2023-02-11T15:42:52.595Z,99890.31
2023-02-11T15:45:55.447Z,99892.57
2023-02-11T15:48:44.127Z,99886.27
2023-02-11T15:51:42.527Z,99898.59
2023-02-11T15:54:34.674Z,99908.64
2023-02-11T15:57:27.816Z,99900.81
2023-02-11T16:00:23.500Z,99899.55
2023-02-11T16:03:09.455Z,99900.19
2023-02-11T16:06:24.145Z,99903.34
2023-02-11T16:09:33.531Z,99914.33
2023-02-11T16:12:29.353Z,99910.20
2023-02-11T16:15:48.351Z,99921.51
2023-02-11T16:18:52.033Z,99921.25
2023-02-11T16:21:49.214Z,99913.95
2023-02-11T16:24:42.920Z,99899.42
2023-02-11T16:27:40.073Z,99891.83
2023-02-11T16:30:38.454Z,99892.25
2023-02-11T16:33:31.746Z,99895.84
2023-02-11T16:36:18.616Z,99907.88
2023-02-11T16:39:12.068Z,99920.66
2023-02-11T16:42:07.438Z,99934.14
2023-02-11T16:45:00.358Z,99927.37
2023-02-11T16:47:44.480Z,99926.42
2023-02-11T16:50:38.034Z,99933.61
2023-02-11T16:53:26.616Z,99932.96
2023-02-11T16:56:19.742Z,99932.04
2023-02-11T16:59:13.186Z,99928.42
2023-02-11T17:02:00.681Z,99923.33
2023-02-11T17:04:48.204Z,99917.68
2023-02-11T17:07:41.296Z,99918.46
2023-02-11T17:10:37.892Z,99915.75
2023-02-11T17:13:30.861Z,99920.90
2023-02-11T17:16:27.782Z,99912.45
2023-02-11T17:19:22.302Z,99910.61
2023-02-11T17:22:15.361Z,99917.66
2023-02-11T17:25:09.453Z,99917.81
2023-02-11T17:28:02.437Z,99926.17
2023-02-11T17:30:55.439Z,99921.98
2023-02-11T17:33:48.792Z,99914.55
2023-02-11T17:36:42.077Z,99917.42
2023-02-11T17:39:35.110Z,99917.27
2023-02-11T17:42:29.450Z,99918.92
2023-02-11T17:45:22.622Z,99918.95
2023-02-11T17:48:16.075Z,99917.05
2023-02-11T17:51:00.552Z,99922.66
2023-02-11T17:53:43.420Z,99913.45
2023-02-11T17:56:26.391Z,99918.05
2023-02-11T17:59:19.807Z,99924.52
2023-02-11T18:02:14.405Z,99932.91
2023-02-11T18:05:08.087Z,99925.91
2023-02-11T18:08:01.384Z,99928.45
2023-02-11T18:10:54.319Z,99926.48
2023-02-11T18:13:54.832Z,99933.66
2023-02-11T18:16:50.649Z,99929.36
2023-02-11T18:19:43.643Z,99925.67
2023-02-11T18:22:40.219Z,99931.83
2023-02-11T18:25:33.504Z,99935.96
2023-02-11T18:28:26.641Z,99925.52
2023-02-11T18:31:22.031Z,99922.38
2023-02-11T18:34:17.255Z,99916.48
2023-02-11T18:37:10.413Z,99916.26
2023-02-11T18:39:47.338Z,99916.39
2023-02-11T18:42:40.372Z,99927.48
2023-02-11T18:45:34.215Z,99930.45
2023-02-11T18:48:09.822Z,99930.38
2023-02-11T18:51:02.617Z,99933.19
2023-02-11T18:53:55.908Z,99939.05
2023-02-11T18:56:50.143Z,99938.91
2023-02-11T18:59:28.041Z,99941.38
2023-02-11T19:02:22.075Z,99943.67
2023-02-11T19:05:15.791Z,99948.50
2023-02-11T19:08:10.269Z,99951.06
2023-02-11T19:11:06.842Z,99944.54
2023-02-11T19:13:59.626Z,99941.55
2023-02-11T19:16:57.458Z,99943.56
2023-02-11T19:19:50.563Z,99940.14
2023-02-11T19:22:44.958Z,99946.48
2023-02-11T19:25:37.946Z,99943.25
2023-02-11T19:28:33.202Z,99949.06
2023-02-11T19:31:16.449Z,99950.69
2023-02-11T19:34:09.453Z,99951.58
2023-02-11T19:37:02.296Z,99946.71
2023-02-11T19:39:55.379Z,99950.55
2023-02-11T19:42:48.365Z,99957.71
2023-02-11T19:45:41.561Z,99949.61
2023-02-11T19:48:27.142Z,99950.66
2023-02-11T19:51:20.729Z,99959.20
2023-02-11T19:54:13.617Z,99955.61
2023-02-11T19:57:06.833Z,99956.87
2023-02-11T20:00:01.503Z,99951.25
2023-02-11T20:02:54.444Z,99954.47
2023-02-11T20:05:40.361Z,99948.86
2023-02-11T20:08:33.548Z,99947.58
2023-02-11T20:11:28.254Z,99944.89
2023-02-11T20:14:12.921Z,99950.50
2023-02-11T20:17:08.158Z,99957.00
2023-02-11T20:20:01.360Z,99960.83
2023-02-11T20:22:36.792Z,99963.23
2023-02-11T20:25:17.850Z,99966.13
2023-02-11T20:27:54.088Z,99965.77
2023-02-11T20:30:34.741Z,99969.30
2023-02-11T20:33:28.594Z,99963.67
2023-02-11T20:36:16.697Z,99967.63
2023-02-11T20:39:17.245Z,99969.15
2023-02-11T20:42:14.431Z,99981.73
2023-02-11T20:45:09.337Z,99974.44
2023-02-11T20:48:02.211Z,99982.38
2023-02-11T20:50:54.223Z,99980.59
2023-02-11T20:53:50.034Z,99982.95
2023-02-11T20:56:45.502Z,99976.40
2023-02-11T20:59:40.006Z,99985.44
2023-02-11T21:02:33.039Z,99987.02
2023-02-11T21:05:25.863Z,99989.33
2023-02-11T21:08:19.366Z,99989.97
2023-02-11T21:11:12.547Z,99991.10
2023-02-11T21:14:06.065Z,99991.27
2023-02-11T21:16:59.345Z,99992.58
2023-02-11T21:19:52.828Z,99992.45
2023-02-11T21:22:38.436Z,99990.38
2023-02-11T21:25:32.618Z,99992.77
2023-02-11T21:28:27.382Z,99996.67
2023-02-11T21:31:25.115Z,100002.99
2023-02-11T21:34:17.991Z,100003.88
2023-02-11T21:37:09.516Z,100002.16
2023-02-11T21:40:02.427Z,100002.08
2023-02-11T21:42:56.865Z,100002.61
2023-02-11T21:45:51.712Z,100004.04
2023-02-11T21:48:44.735Z,100006.32
2023-02-11T21:51:38.085Z,100006.13
2023-02-11T21:54:33.794Z,100007.39
2023-02-11T21:57:26.559Z,100014.91
2023-02-11T22:00:21.209Z,100015.16
2023-02-11T22:03:15.029Z,100013.41
2023-02-11T22:06:01.597Z,100013.79
2023-02-11T22:08:55.105Z,100019.70
2023-02-11T22:11:49.372Z,100026.48
2023-02-11T22:14:42.203Z,100029.12
2023-02-11T22:17:36.277Z,100029.60
2023-02-11T22:20:29.312Z,100036.20
2023-02-11T22:23:22.623Z,100037.48
2023-02-11T22:26:17.651Z,100040.67
2023-02-11T22:29:10.916Z,100044.55
2023-02-11T22:32:03.833Z,100047.55
2023-02-11T22:34:46.004Z,100049.33
2023-02-11T22:37:38.808Z,100052.20
2023-02-11T22:40:31.759Z,100051.63
2023-02-11T22:43:24.755Z,100047.09
2023-02-11T22:46:20.573Z,100047.88
2023-02-11T22:49:15.707Z,100051.20
2023-02-11T22:52:08.752Z,100052.16
2023-02-11T22:55:01.656Z,100054.13
2023-02-11T22:57:54.430Z,100054.70
2023-02-11T23:00:47.275Z,100055.30
2023-02-11T23:03:40.486Z,100060.36
2023-02-11T23:06:34.396Z,100063.96
2023-02-11T23:09:28.363Z,100066.02
2023-02-11T23:12:21.426Z,100067.20
2023-02-11T23:15:15.312Z,100068.20
2023-02-11T23:18:08.696Z,100068.04
2023-02-11T23:21:06.813Z,100067.04
2023-02-11T23:23:59.010Z,100066.15
2023-02-11T23:26:51.456Z,100065.46
2023-02-11T23:29:44.293Z,100064.07
2023-02-11T23:32:41.019Z,100065.05
2023-02-11T23:35:34.189Z,100068.50
2023-02-11T23:38:28.815Z,100067.07
2023-02-11T23:41:22.237Z,100078.52
2023-02-11T23:44:17.806Z,100079.88
2023-02-11T23:47:10.628Z,100082.44
2023-02-11T23:50:05.184Z,100082.83
2023-02-11T23:52:50.961Z,100087.59
2023-02-11T23:55:45.806Z,100090.81
2023-02-11T23:58:39.030Z,100104.59
